This is the latest recevied weather packets stored in our database for station/object WD0REW. If no packets are shown the sender has not sent any weather packets the latest 10 day(s).
| Time | Temp. | Humidity | Pressure | Rain* | Wind** | Luminosity | Snow |
|---|---|---|---|---|---|---|---|
| 1777398839 | 15.56° C | 90% | 1013.7 hPa | 0 mm | - | 65 W/m² | - |
| 1777398536 | 15.56° C | 89% | 1013.8 hPa | 0 mm | - | 120 W/m² | - |
| 1777398233 | 15.56° C | 90% | 1014.2 hPa | 0 mm | - | 151 W/m² | - |
| 1777397930 | 15.56° C | 89% | 1014.6 hPa | 0 mm | - | 166 W/m² | - |
| 1777397625 | 15.56° C | 89% | 1015.2 hPa | 0 mm | - | 164 W/m² | - |
| 1777397322 | 16.11° C | 89% | 1015.3 hPa | 0 mm | - | 275 W/m² | - |
| 1777397019 | 15.56° C | 90% | 1015 hPa | 0 mm | - | 298 W/m² | - |
| 1777396716 | 15.56° C | 89% | 1015.8 hPa | 0 mm | - | 627 W/m² | - |
| 1777396412 | 15.56° C | 90% | 1015.7 hPa | 0 mm | - | 554 W/m² | - |
| 1777396109 | 15.56° C | 93% | 1015.8 hPa | 3.05 mm | - | 322 W/m² | - |
| 1777395805 | 14.44° C | 93% | 1016.1 hPa | 31.75 mm | - | 566 W/m² | - |
| 1777395500 | 15° C | 88% | 1015.4 hPa | 36.58 mm | - | 114 W/m² | - |
| 1777395198 | 15.56° C | 87% | 1018.6 hPa | 14.99 mm | - | 5 W/m² | - |
| 1777394895 | 16.11° C | 79% | 1015.3 hPa | 3.05 mm | - | 3 W/m² | - |
| 1777394590 | 16.67° C | 73% | 1014.1 hPa | 0 mm | - | 2 W/m² | - |
| 1777394288 | 16.67° C | 74% | 1013.6 hPa | 0 mm | - | 14 W/m² | - |
| 1777393984 | 16.67° C | 73% | 1013.9 hPa | 0 mm | - | 25 W/m² | - |
| 1777393683 | 17.22° C | 72% | 1015 hPa | 0 mm | - | 40 W/m² | - |
| 1777393379 | 17.78° C | 70% | 1015.4 hPa | 0 mm | - | 69 W/m² | - |
| 1777393075 | 17.78° C | 70% | 1015.5 hPa | 0 mm | - | 110 W/m² | - |
| 1777392771 | 17.78° C | 69% | 1015.8 hPa | 0 mm | - | 86 W/m² | - |
| 1777392467 | 18.89° C | 66% | 1015.7 hPa | 0 mm | - | 149 W/m² | - |
| 1777392163 | 18.89° C | 71% | 1015.2 hPa | 0 mm | - | 448 W/m² | - |
| 1777391858 | 17.78° C | 71% | 1015.7 hPa | 0 mm | - | 690 W/m² | - |
| 1777391553 | 18.33° C | 68% | 1016.3 hPa | 0 mm | - | 335 W/m² | - |
* Rain latest hour (hover to see other rain measurements)
** Current wind speed in m/s (hover to see current wind gust speed)